Time;durP1;ratioP1;P1;durP2;ratioP2;P2;SDS_P1;SDS_P2;PMS_P1;PMS_P2;Temp;Humidity;BMP_temperature;BMP_pressure;BME280_temperature;BME280_humidity;BME280_pressure;Samples;Min_cycle;Max_cycle;Signal;HPM_P1;HPM_P2
2023/12/18 00:00:05;;;;;;;17.27;12.85;;;;;;;2.50;100.00;103145.94;5012274;28;20041;-89
2023/12/18 00:02:31;;;;;;;16.13;12.80;;;;;;;2.45;100.00;103136.19;5022765;28;20171;-86
2023/12/18 00:04:56;;;;;;;15.77;13.10;;;;;;;2.45;100.00;103144.09;5021616;28;20038;-89
2023/12/18 00:07:21;;;;;;;15.88;12.82;;;;;;;2.38;100.00;103144.81;5022352;28;20038;-88
2023/12/18 00:09:47;;;;;;;16.58;13.40;;;;;;;2.32;100.00;103148.22;5032353;28;20115;-89
2023/12/18 00:12:12;;;;;;;19.48;13.73;;;;;;;2.32;100.00;103156.09;5025036;28;20036;-89
2023/12/18 00:14:37;;;;;;;18.77;13.40;;;;;;;2.28;100.00;103172.66;5024808;28;20073;-86
2023/12/18 00:17:06;;;;;;;17.67;13.80;;;;;;;2.31;100.00;103177.97;4997248;28;20369;-85
2023/12/18 00:19:31;;;;;;;19.10;14.52;;;;;;;2.41;100.00;103166.78;5000915;28;20042;-87
2023/12/18 00:21:56;;;;;;;17.80;13.18;;;;;;;2.45;100.00;103176.50;5018655;28;20345;-89
2023/12/18 00:24:22;;;;;;;22.67;15.40;;;;;;;2.41;100.00;103164.16;5015268;28;20041;-90
2023/12/18 00:26:47;;;;;;;15.50;13.68;;;;;;;2.49;100.00;103175.72;5026526;28;20679;-89
2023/12/18 00:29:12;;;;;;;16.35;12.77;;;;;;;2.55;100.00;103177.59;5018911;28;20041;-87
2023/12/18 00:31:38;;;;;;;18.15;13.50;;;;;;;2.65;100.00;103174.28;5018230;28;20115;-87
2023/12/18 00:34:03;;;;;;;17.27;13.88;;;;;;;2.73;100.00;103166.53;5021103;28;20457;-87
2023/12/18 00:36:28;;;;;;;17.88;14.52;;;;;;;2.81;100.00;103164.94;5007511;28;20128;-89
2023/12/18 00:38:54;;;;;;;16.52;13.10;;;;;;;2.98;100.00;103162.63;5014198;28;20126;-86
2023/12/18 00:41:20;;;;;;;16.35;13.70;;;;;;;2.98;100.00;103147.72;5012111;28;20156;-88
2023/12/18 00:43:45;;;;;;;17.45;13.95;;;;;;;3.14;100.00;103167.28;5016752;28;20073;-88
2023/12/18 00:46:11;;;;;;;16.15;13.60;;;;;;;3.22;100.00;103154.25;5024301;28;20025;-87
2023/12/18 00:48:36;;;;;;;18.90;15.10;;;;;;;3.29;100.00;103163.13;5020358;28;20041;-87
2023/12/18 00:51:02;;;;;;;19.60;15.88;;;;;;;3.33;100.00;103149.16;5013753;28;20427;-88
2023/12/18 00:53:27;;;;;;;18.95;14.60;;;;;;;3.35;100.00;103143.06;5020745;28;20519;-89
2023/12/18 00:55:52;;;;;;;18.75;14.52;;;;;;;3.38;100.00;103142.22;5016686;28;20537;-86
2023/12/18 00:58:18;;;;;;;21.25;16.02;;;;;;;3.48;100.00;103133.59;5009451;28;20021;-86
2023/12/18 01:00:43;;;;;;;19.05;16.13;;;;;;;3.42;100.00;103109.81;5020921;28;20091;-90
2023/12/18 01:03:08;;;;;;;23.67;16.27;;;;;;;3.49;100.00;103138.00;5030738;28;20059;-89
2023/12/18 01:05:34;;;;;;;24.17;16.75;;;;;;;3.48;100.00;103123.94;5030958;28;20553;-87
2023/12/18 01:07:59;;;;;;;21.40;16.30;;;;;;;3.45;100.00;103118.63;5018430;28;20034;-89
2023/12/18 01:10:24;;;;;;;24.92;16.58;;;;;;;3.55;100.00;103131.94;5017749;28;20117;-85
2023/12/18 01:12:50;;;;;;;24.65;17.83;;;;;;;3.55;100.00;103134.56;5014633;28;20391;-88
2023/12/18 01:15:15;;;;;;;22.15;16.73;;;;;;;3.56;100.00;103131.97;5001074;28;20040;-89
2023/12/18 01:17:41;;;;;;;21.67;15.80;;;;;;;3.53;100.00;103125.78;5005390;28;20033;-87
2023/12/18 01:20:07;;;;;;;24.73;17.27;;;;;;;3.52;100.00;103119.63;5019527;28;20496;-88
2023/12/18 01:22:35;;;;;;;24.25;17.15;;;;;;;3.62;100.00;103139.06;5023792;28;20515;-89
2023/12/18 01:25:03;;;;;;;24.30;17.00;;;;;;;3.62;100.00;103145.22;5022264;28;20073;-87
2023/12/18 01:27:29;;;;;;;27.02;18.02;;;;;;;3.55;100.00;103121.41;5025706;28;20064;-88
2023/12/18 01:29:54;;;;;;;22.23;17.55;;;;;;;3.65;100.00;103136.50;5023877;28;20315;-88
2023/12/18 01:32:19;;;;;;;24.35;18.58;;;;;;;3.61;100.00;103124.13;4999130;28;20061;-90
2023/12/18 01:34:45;;;;;;;22.42;17.15;;;;;;;3.61;100.00;103114.47;5016812;28;20014;-87
2023/12/18 01:37:10;;;;;;;28.25;18.00;;;;;;;3.68;100.00;103131.28;5027058;28;20042;-88
2023/12/18 01:39:36;;;;;;;24.10;16.83;;;;;;;3.68;100.00;103126.00;5031537;28;20037;-86
2023/12/18 01:42:02;;;;;;;21.85;17.40;;;;;;;3.68;100.00;103136.53;5008917;28;20037;-88
2023/12/18 01:44:27;;;;;;;23.08;17.73;;;;;;;3.68;100.00;103136.53;5017495;28;20416;-87
2023/12/18 01:46:53;;;;;;;26.13;18.83;;;;;;;3.68;100.00;103139.16;5001579;28;20045;-90
2023/12/18 01:49:19;;;;;;;24.25;17.83;;;;;;;3.71;100.00;103131.28;5030926;28;20032;-89
2023/12/18 01:51:45;;;;;;;23.15;17.77;;;;;;;3.68;100.00;103129.53;5022947;28;20034;-87
2023/12/18 01:54:11;;;;;;;25.38;18.15;;;;;;;3.57;100.00;103123.19;5014545;28;20034;-88
2023/12/18 01:56:38;;;;;;;25.95;18.65;;;;;;;3.64;100.00;103140.88;5011922;28;20037;-86
2023/12/18 01:59:05;;;;;;;24.90;18.20;;;;;;;3.54;100.00;103119.63;5006341;28;20036;-86
2023/12/18 02:01:33;;;;;;;22.77;18.63;;;;;;;3.66;100.00;103138.25;5019684;28;20456;-85
2023/12/18 02:03:59;;;;;;;27.17;19.52;;;;;;;3.68;100.00;103140.06;5018479;28;20088;-89
2023/12/18 02:06:25;;;;;;;27.25;18.13;;;;;;;3.65;100.00;103125.94;5012826;28;20041;-90
2023/12/18 02:08:51;;;;;;;27.25;19.15;;;;;;;3.64;100.00;103118.91;5014250;28;20287;-89
2023/12/18 02:11:17;;;;;;;28.13;19.65;;;;;;;3.69;100.00;103127.78;5028024;28;20053;-88
2023/12/18 02:13:43;;;;;;;25.13;19.35;;;;;;;3.66;100.00;103115.44;5009375;28;20211;-88
2023/12/18 02:16:10;;;;;;;29.33;19.30;;;;;;;3.69;100.00;103127.78;5020403;28;20041;-86
2023/12/18 02:18:42;;;;;;;25.67;19.63;;;;;;;3.69;100.00;103112.84;5028905;28;20041;-89
2023/12/18 02:21:07;;;;;;;23.63;18.65;;;;;;;3.69;100.00;103122.50;5024460;28;20553;-87
2023/12/18 02:23:35;;;;;;;26.08;19.48;;;;;;;3.65;100.00;103110.16;5023034;28;20053;-84
2023/12/18 02:26:04;;;;;;;26.55;20.15;;;;;;;3.68;100.00;103115.47;5014410;28;20060;-86
2023/12/18 02:28:39;;;;;;;26.95;19.27;;;;;;;3.44;100.00;103064.22;5022038;28;20468;-88
2023/12/18 02:31:04;;;;;;;25.73;18.83;;;;;;;3.63;100.00;103098.69;5020078;28;20057;-91
2023/12/18 02:33:30;;;;;;;28.67;19.48;;;;;;;3.66;100.00;103110.16;5023100;28;20107;-89
2023/12/18 02:35:56;;;;;;;28.15;19.92;;;;;;;3.71;100.00;103104.94;5019936;28;20549;-89
2023/12/18 02:38:22;;;;;;;27.92;20.10;;;;;;;3.72;100.00;103117.25;5017708;28;20053;-90
2023/12/18 02:40:47;;;;;;;29.30;20.10;;;;;;;3.66;100.00;103094.34;5019388;28;20042;-89
2023/12/18 02:43:13;;;;;;;32.13;20.67;;;;;;;3.73;100.00;103106.75;5020835;28;20058;-87
2023/12/18 02:45:38;;;;;;;27.13;20.60;;;;;;;3.65;100.00;103081.19;5024853;28;20030;-88
2023/12/18 02:48:04;;;;;;;28.20;19.98;;;;;;;3.74;100.00;103105.00;5035038;28;20092;-87
2023/12/18 02:50:30;;;;;;;29.48;19.58;;;;;;;3.76;100.00;103098.00;5012766;28;20075;-86
2023/12/18 02:52:55;;;;;;;27.70;20.17;;;;;;;3.78;100.00;103098.91;5022776;28;20116;-89
2023/12/18 02:55:20;;;;;;;28.90;20.52;;;;;;;3.78;100.00;103098.91;5029073;28;20040;-86
2023/12/18 02:57:46;;;;;;;27.83;20.88;;;;;;;3.79;100.00;103092.78;5023589;28;20044;-88
2023/12/18 03:00:11;;;;;;;28.67;19.85;;;;;;;3.81;100.00;103096.31;5023639;28;20132;-89
2023/12/18 03:02:38;;;;;;;31.02;21.30;;;;;;;3.70;100.00;103074.22;5017591;28;20026;-86
2023/12/18 03:05:04;;;;;;;27.90;20.13;;;;;;;3.80;100.00;103085.75;5023955;28;20319;-87
2023/12/18 03:07:29;;;;;;;33.25;21.65;;;;;;;3.67;100.00;103066.28;5012668;28;20053;-88
2023/12/18 03:09:55;;;;;;;31.13;21.23;;;;;;;3.77;100.00;103078.72;5020973;28;20052;-88
2023/12/18 03:12:20;;;;;;;29.27;21.15;;;;;;;3.78;100.00;103077.84;5003370;28;20320;-86
2023/12/18 03:14:45;;;;;;;27.38;22.58;;;;;;;3.80;100.00;103075.22;5019659;28;20037;-88
2023/12/18 03:17:11;;;;;;;31.55;22.08;;;;;;;3.71;100.00;103062.81;5019318;28;20128;-89
2023/12/18 03:19:36;;;;;;;30.73;22.40;;;;;;;3.78;100.00;103075.22;5024608;28;20045;-87
2023/12/18 03:22:02;;;;;;;33.83;21.48;;;;;;;3.78;100.00;103062.03;5018042;28;20522;-86
2023/12/18 03:24:27;;;;;;;29.67;21.67;;;;;;;3.60;100.00;103040.75;5020803;28;20137;-89
2023/12/18 03:26:52;;;;;;;36.05;22.75;;;;;;;3.78;100.00;103080.47;5021636;28;20799;-87
2023/12/18 03:29:18;;;;;;;34.85;23.58;;;;;;;3.72;100.00;103070.75;5005518;28;20105;-89
2023/12/18 03:31:43;;;;;;;32.58;23.17;;;;;;;3.79;100.00;103079.59;5023950;28;20060;-87
2023/12/18 03:34:08;;;;;;;33.50;21.63;;;;;;;3.79;100.00;103071.69;5023295;28;20041;-85
2023/12/18 03:36:33;;;;;;;32.05;22.17;;;;;;;3.81;100.00;103063.84;5016872;28;20076;-86
2023/12/18 03:38:59;;;;;;;28.50;21.55;;;;;;;3.81;100.00;103058.56;5014626;28;20512;-91
2023/12/18 03:41:24;;;;;;;37.47;23.02;;;;;;;3.80;100.00;103062.91;5016453;28;20041;-86
2023/12/18 03:43:50;;;;;;;33.28;22.70;;;;;;;3.79;100.00;103065.56;5021238;28;20480;-87
2023/12/18 03:46:16;;;;;;;34.88;23.33;;;;;;;3.79;100.00;103066.44;5021361;28;20083;-88
2023/12/18 03:48:41;;;;;;;30.25;23.02;;;;;;;3.81;100.00;103062.09;5016481;28;20037;-87
2023/12/18 03:51:07;;;;;;;35.78;23.80;;;;;;;3.79;100.00;103068.19;5009370;28;20044;-86
2023/12/18 03:53:32;;;;;;;32.28;22.05;;;;;;;3.80;100.00;103067.31;5017149;28;20422;-87
2023/12/18 03:55:57;;;;;;;31.58;22.50;;;;;;;3.78;100.00;103074.31;5018472;28;20539;-87
2023/12/18 03:58:23;;;;;;;33.28;23.40;;;;;;;3.77;100.00;103068.19;5024621;28;20044;-90
2023/12/18 04:00:48;;;;;;;38.05;24.50;;;;;;;3.78;100.00;103069.06;5021929;28;20044;-88
2023/12/18 04:03:13;;;;;;;37.88;24.50;;;;;;;3.72;100.00;103061.94;5014564;28;20048;-88
2023/12/18 04:05:39;;;;;;;32.58;23.05;;;;;;;3.68;100.00;103055.78;5014613;28;20041;-89
2023/12/18 04:08:04;;;;;;;32.92;22.80;;;;;;;3.77;100.00;103070.81;5030314;28;20030;-87
2023/12/18 04:10:32;;;;;;;32.67;22.90;;;;;;;3.77;100.00;103078.72;5028560;28;20069;-86
2023/12/18 04:12:58;;;;;;;34.63;23.38;;;;;;;3.70;100.00;103074.22;5010533;28;20036;-89
2023/12/18 04:15:24;;;;;;;34.53;23.38;;;;;;;3.73;100.00;103075.16;5022525;28;20084;-86
2023/12/18 04:17:49;;;;;;;31.40;22.35;;;;;;;3.77;100.00;103075.19;5018440;28;20042;-87
2023/12/18 04:20:16;;;;;;;35.00;22.67;;;;;;;3.77;100.00;103065.53;5030289;28;20044;-89
2023/12/18 04:22:41;;;;;;;33.85;23.13;;;;;;;3.78;100.00;103069.06;5022838;28;20045;-89
2023/12/18 04:25:07;;;;;;;35.13;22.02;;;;;;;3.82;100.00;103076.13;5007127;28;20045;-90
2023/12/18 04:27:32;;;;;;;36.83;23.42;;;;;;;3.80;100.00;103062.91;5024655;28;20610;-89
2023/12/18 04:29:57;;;;;;;41.40;24.15;;;;;;;3.77;100.00;103068.19;5012793;28;20314;-87
2023/12/18 04:32:23;;;;;;;33.15;23.00;;;;;;;3.82;100.00;103071.75;5007835;28;20049;-86
2023/12/18 04:34:48;;;;;;;35.42;23.17;;;;;;;3.76;100.00;103058.47;5013496;28;20044;-88
2023/12/18 04:37:13;;;;;;;38.03;23.83;;;;;;;3.60;100.00;103027.56;5008653;28;20044;-89
2023/12/18 04:39:39;;;;;;;35.88;23.75;;;;;;;3.79;100.00;103050.63;4994609;28;20046;-88
2023/12/18 04:42:05;;;;;;;34.75;22.40;;;;;;;3.79;100.00;103047.09;4988949;28;20551;-85
2023/12/18 04:44:30;;;;;;;32.17;23.45;;;;;;;3.77;100.00;103047.09;5017617;28;20511;-89
2023/12/18 04:46:56;;;;;;;30.73;22.50;;;;;;;3.85;100.00;103063.88;5004426;28;20073;-89
2023/12/18 04:49:21;;;;;;;35.00;23.17;;;;;;;3.81;100.00;103059.44;5000173;28;20494;-87
2023/12/18 04:51:47;;;;;;;37.88;23.73;;;;;;;3.84;100.00;103066.50;5010743;28;20133;-88
2023/12/18 04:54:13;;;;;;;34.90;24.55;;;;;;;3.81;100.00;103062.09;4993735;28;20056;-87
2023/12/18 04:56:39;;;;;;;33.95;24.58;;;;;;;3.85;100.00;103061.25;4994751;28;20041;-88
2023/12/18 04:59:04;;;;;;;36.97;24.50;;;;;;;3.86;100.00;103060.38;5011871;28;20038;-87
2023/12/18 05:01:30;;;;;;;38.88;25.83;;;;;;;3.86;100.00;103051.59;4998278;28;20045;-89
2023/12/18 05:03:55;;;;;;;33.30;23.95;;;;;;;3.77;100.00;103038.31;5011229;28;20037;-91
2023/12/18 05:06:22;;;;;;;36.50;24.70;;;;;;;3.77;100.00;103033.94;5012266;28;20030;-87
2023/12/18 05:08:48;;;;;;;36.60;24.77;;;;;;;3.87;100.00;103056.88;5012253;28;20044;-89
2023/12/18 05:11:17;;;;;;;35.22;24.17;;;;;;;3.88;100.00;103058.63;5021739;28;20049;-91
2023/12/18 05:13:42;;;;;;;39.70;25.05;;;;;;;3.89;100.00;103055.16;4999513;28;20037;-88
2023/12/18 05:16:07;;;;;;;39.40;25.02;;;;;;;3.85;100.00;103049.84;5014970;28;20030;-85
2023/12/18 05:18:37;;;;;;;37.03;24.40;;;;;;;3.83;100.00;103043.66;4997735;28;20048;-86
2023/12/18 05:21:05;;;;;;;37.65;23.90;;;;;;;3.91;100.00;103044.63;5014506;28;20042;-89
2023/12/18 05:23:31;;;;;;;36.03;25.42;;;;;;;3.89;100.00;103035.84;5004203;28;20037;-86
2023/12/18 05:25:56;;;;;;;36.88;24.42;;;;;;;3.84;100.00;103017.31;5000464;28;20030;-88
2023/12/18 05:28:22;;;;;;;31.40;23.42;;;;;;;3.96;100.00;103038.53;5012022;28;20116;-90
2023/12/18 05:30:47;;;;;;;38.13;25.50;;;;;;;3.94;100.00;103036.78;5013109;28;20649;-89
2023/12/18 05:33:13;;;;;;;36.85;24.48;;;;;;;3.95;100.00;103049.94;5020605;28;20555;-88
2023/12/18 05:35:39;;;;;;;35.95;24.13;;;;;;;3.95;100.00;103052.59;5011880;28;20409;-88
2023/12/18 05:38:04;;;;;;;36.63;24.58;;;;;;;3.92;100.00;103044.63;5028543;28;20030;-86
2023/12/18 05:40:29;;;;;;;34.85;24.17;;;;;;;3.95;100.00;103044.69;5029213;28;20072;-86
2023/12/18 05:42:55;;;;;;;35.67;22.85;;;;;;;3.98;100.00;103057.91;5024400;28;20024;-89
2023/12/18 05:45:20;;;;;;;36.92;23.60;;;;;;;3.94;100.00;103052.56;5015958;28;20128;-86
2023/12/18 05:47:46;;;;;;;39.35;24.42;;;;;;;3.97;100.00;103052.59;5027135;28;20041;-85
2023/12/18 05:50:11;;;;;;;37.33;24.27;;;;;;;3.91;100.00;103048.16;5013837;28;20145;-88
2023/12/18 05:52:37;;;;;;;35.67;23.85;;;;;;;3.92;100.00;103055.19;5010416;28;20124;-86
2023/12/18 05:55:06;;;;;;;33.45;23.55;;;;;;;3.97;100.00;103063.13;5021167;28;20033;-87
2023/12/18 05:57:32;;;;;;;35.10;24.75;;;;;;;3.91;100.00;103049.91;5017727;28;20026;-88
2023/12/18 05:59:57;;;;;;;36.10;24.15;;;;;;;3.99;100.00;103070.19;5000649;28;20481;-88
2023/12/18 06:02:22;;;;;;;38.50;24.92;;;;;;;3.95;100.00;103056.97;5025188;28;20128;-91
2023/12/18 06:04:48;;;;;;;36.10;24.33;;;;;;;3.96;100.00;103064.88;5010003;28;20105;-90
2023/12/18 06:07:14;;;;;;;38.97;24.13;;;;;;;3.80;100.00;103030.44;5026727;28;20041;-91
2023/12/18 06:09:39;;;;;;;41.47;25.55;;;;;;;3.96;100.00;103058.72;5020552;28;20373;-88
2023/12/18 06:12:06;;;;;;;39.70;25.80;;;;;;;3.90;100.00;103049.03;5020708;28;20443;-86
2023/12/18 06:14:34;;;;;;;39.03;24.83;;;;;;;3.86;100.00;103041.94;5015443;28;20037;-86
2023/12/18 06:17:03;;;;;;;35.47;25.25;;;;;;;3.93;100.00;103054.34;5029189;28;20150;-85
2023/12/18 06:19:28;;;;;;;39.75;25.73;;;;;;;3.79;100.00;103032.19;5019182;28;20038;-86
2023/12/18 06:21:54;;;;;;;42.03;26.77;;;;;;;3.92;100.00;103051.66;5023899;28;20419;-86
2023/12/18 06:24:19;;;;;;;38.97;25.73;;;;;;;3.77;100.00;103033.06;5022279;28;20091;-88
2023/12/18 06:26:44;;;;;;;38.05;25.67;;;;;;;3.93;100.00;103056.06;5025257;28;20458;-89
2023/12/18 06:29:10;;;;;;;46.25;27.50;;;;;;;3.78;100.00;103038.31;5012545;28;20033;-87
2023/12/18 06:31:35;;;;;;;40.03;26.88;;;;;;;3.85;100.00;103042.81;5016523;28;20040;-88
2023/12/18 06:34:03;;;;;;;43.80;26.17;;;;;;;3.90;100.00;103053.41;5023556;28;20059;-86
2023/12/18 06:36:29;;;;;;;42.13;26.77;;;;;;;3.69;100.00;103011.88;5022085;28;20073;-86
2023/12/18 06:38:55;;;;;;;45.72;27.40;;;;;;;3.90;100.00;103051.66;5019895;28;20095;-86
2023/12/18 06:41:21;;;;;;;42.53;26.77;;;;;;;3.90;100.00;103056.03;5024794;28;20272;-89
2023/12/18 06:43:46;;;;;;;39.60;26.90;;;;;;;3.83;100.00;103043.66;5023545;28;20033;-90
2023/12/18 06:46:13;;;;;;;44.55;27.55;;;;;;;3.84;100.00;103048.03;5024219;28;20061;-89
2023/12/18 06:48:40;;;;;;;42.28;26.20;;;;;;;3.92;100.00;103051.66;5015107;28;20052;-90
2023/12/18 06:51:08;;;;;;;41.63;25.90;;;;;;;3.90;100.00;103053.41;5024931;28;20424;-90
2023/12/18 06:53:34;;;;;;;40.30;26.83;;;;;;;3.91;100.00;103056.03;5026099;28;20041;-91
2023/12/18 06:55:59;;;;;;;38.95;25.75;;;;;;;3.92;100.00;103052.53;5016211;28;20021;-86
2023/12/18 06:58:24;;;;;;;44.05;27.20;;;;;;;3.94;100.00;103055.22;5002679;28;20404;-88
2023/12/18 07:00:50;;;;;;;42.55;27.60;;;;;;;3.92;100.00;103047.28;5024267;28;20041;-86
2023/12/18 07:03:15;;;;;;;44.58;27.80;;;;;;;3.93;100.00;103046.44;5022570;28;20042;-87
2023/12/18 07:05:42;;;;;;;43.35;27.23;;;;;;;3.97;100.00;103048.22;5030069;28;20045;-89
2023/12/18 07:08:07;;;;;;;42.35;26.73;;;;;;;3.95;100.00;103047.31;5024134;28;20522;-88
2023/12/18 07:10:32;;;;;;;44.53;28.75;;;;;;;3.95;100.00;103052.59;5015672;28;20052;-89
2023/12/18 07:12:58;;;;;;;42.55;27.60;;;;;;;3.99;100.00;103054.38;5004022;28;20049;-89
2023/12/18 07:15:25;;;;;;;46.25;29.02;;;;;;;3.99;100.00;103051.75;5021123;28;20038;-87
2023/12/18 07:17:51;;;;;;;49.45;28.13;;;;;;;4.04;100.00;103061.47;5014061;28;20039;-88
2023/12/18 07:20:19;;;;;;;47.92;28.95;;;;;;;4.02;100.00;103058.81;5001067;28;20038;-89
2023/12/18 07:22:44;;;;;;;43.05;27.52;;;;;;;4.03;100.00;103060.59;5021622;28;20427;-87
2023/12/18 07:25:10;;;;;;;44.05;27.83;;;;;;;3.92;100.00;103035.84;5019896;28;20037;-88
2023/12/18 07:27:36;;;;;;;48.00;29.13;;;;;;;4.05;100.00;103061.47;5023228;28;20042;-90
2023/12/18 07:30:04;;;;;;;43.03;28.45;;;;;;;4.05;100.00;103064.09;5014930;28;20037;-88
2023/12/18 07:32:31;;;;;;;45.92;28.60;;;;;;;4.05;100.00;103057.97;5011954;28;20041;-90
2023/12/18 07:34:59;;;;;;;44.38;29.45;;;;;;;4.02;100.00;103055.31;5020643;28;20049;-86
2023/12/18 07:37:25;;;;;;;43.70;28.67;;;;;;;4.08;100.00;103066.78;5019024;28;20041;-87
2023/12/18 07:39:50;;;;;;;42.65;28.35;;;;;;;4.08;100.00;103066.78;5018639;28;20036;-86
2023/12/18 07:42:15;;;;;;;47.30;28.67;;;;;;;4.09;100.00;103059.75;5018864;28;20065;-88
2023/12/18 07:44:41;;;;;;;46.20;28.65;;;;;;;3.97;100.00;103045.59;5021425;28;20048;-87
2023/12/18 07:47:07;;;;;;;44.00;28.77;;;;;;;4.06;100.00;103057.13;5026319;28;20758;-84
2023/12/18 07:49:36;;;;;;;44.58;29.27;;;;;;;4.02;100.00;103053.56;5010695;28;20425;-85
2023/12/18 07:52:04;;;;;;;45.05;29.33;;;;;;;4.09;100.00;103065.03;5025999;28;20606;-88
2023/12/18 07:54:30;;;;;;;43.85;28.65;;;;;;;4.09;100.00;103065.91;5022400;28;20381;-87
2023/12/18 07:56:55;;;;;;;47.10;28.92;;;;;;;4.11;100.00;103063.31;5027375;28;20127;-91
2023/12/18 07:59:20;;;;;;;48.33;29.15;;;;;;;4.05;100.00;103057.97;5029847;28;20523;-87
2023/12/18 08:01:46;;;;;;;46.08;28.67;;;;;;;3.93;100.00;103024.44;5024065;28;20041;-87
2023/12/18 08:04:14;;;;;;;44.20;29.63;;;;;;;3.94;100.00;103034.13;5024506;28;20503;-90
2023/12/18 08:06:40;;;;;;;40.20;26.98;;;;;;;4.14;100.00;103058.06;5027327;28;20041;-87
2023/12/18 08:09:05;;;;;;;42.25;29.17;;;;;;;4.15;100.00;103070.38;5019517;28;20381;-85
2023/12/18 08:11:30;;;;;;;43.38;29.17;;;;;;;4.06;100.00;103043.94;5024226;28;20068;-82
2023/12/18 08:13:56;;;;;;;48.70;29.52;;;;;;;4.17;100.00;103058.09;5020476;28;20046;-86
2023/12/18 08:16:23;;;;;;;46.67;29.25;;;;;;;4.13;100.00;103059.81;5004333;28;20468;-86
2023/12/18 08:18:48;;;;;;;45.00;28.27;;;;;;;4.15;100.00;103062.47;5003704;28;20037;-83
2023/12/18 08:21:14;;;;;;;44.28;28.75;;;;;;;4.14;100.00;103053.69;5026867;28;20537;-87
2023/12/18 08:23:44;;;;;;;42.70;29.27;;;;;;;4.14;100.00;103052.78;5023838;28;20094;-85
2023/12/18 08:26:10;;;;;;;47.92;29.23;;;;;;;4.06;100.00;103039.53;5017156;28;20069;-87
2023/12/18 08:28:37;;;;;;;55.22;30.42;;;;;;;4.13;100.00;103037.84;5023339;28;20037;-85
2023/12/18 08:31:03;;;;;;;50.00;29.58;;;;;;;4.06;100.00;103029.00;5030618;28;20171;-83
2023/12/18 08:33:28;;;;;;;50.67;29.48;;;;;;;4.18;100.00;103044.94;5038082;28;20069;-85
2023/12/18 08:35:53;;;;;;;46.42;28.25;;;;;;;4.11;100.00;103026.41;5033427;28;20095;-84
2023/12/18 08:38:19;;;;;;;44.90;29.00;;;;;;;4.20;100.00;103032.66;5026962;28;20385;-81
2023/12/18 08:40:45;;;;;;;48.10;28.95;;;;;;;4.22;100.00;103043.22;5025427;28;20034;-86
2023/12/18 08:43:11;;;;;;;45.92;28.70;;;;;;;4.24;100.00;103047.63;5005707;28;20101;-85
2023/12/18 08:45:36;;;;;;;45.95;28.48;;;;;;;4.29;100.00;103045.03;5019984;28;20141;-86
2023/12/18 08:48:02;;;;;;;48.13;30.27;;;;;;;4.30;100.00;103038.91;5022478;28;20113;-83
2023/12/18 08:50:28;;;;;;;46.63;27.73;;;;;;;4.31;100.00;103031.91;5000894;28;20049;-87
2023/12/18 08:52:53;;;;;;;47.25;28.17;;;;;;;4.38;100.00;103031.94;5011811;28;20046;-84
2023/12/18 08:55:19;;;;;;;44.13;28.00;;;;;;;4.36;100.00;103027.56;5015722;28;20045;-86
2023/12/18 08:57:44;;;;;;;46.92;27.90;;;;;;;4.40;100.00;103018.81;5020844;28;20037;-85
2023/12/18 09:00:12;;;;;;;41.08;28.23;;;;;;;4.51;100.00;103027.69;5024716;28;20053;-84
2023/12/18 09:02:38;;;;;;;41.78;27.77;;;;;;;4.56;100.00;103022.47;5016013;28;20045;-84
2023/12/18 09:05:07;;;;;;;44.53;26.55;;;;;;;4.61;100.00;103018.13;5022809;28;20037;-83
2023/12/18 09:07:36;;;;;;;42.80;25.63;;;;;;;4.64;100.00;103018.13;5011809;28;20037;-83
2023/12/18 09:10:01;;;;;;;38.80;25.63;;;;;;;4.64;100.00;103013.75;5023153;28;20049;-86
2023/12/18 09:12:26;;;;;;;41.35;26.92;;;;;;;4.66;100.00;103029.59;5016045;28;20050;-84
2023/12/18 09:14:52;;;;;;;39.80;26.27;;;;;;;4.67;100.00;103028.69;5017596;28;20043;-86
2023/12/18 09:17:17;;;;;;;42.75;26.23;;;;;;;4.66;100.00;103021.66;5026164;28;20110;-86
2023/12/18 09:19:43;;;;;;;42.95;25.00;;;;;;;4.68;100.00;103022.53;5021775;28;20049;-86
2023/12/18 09:22:08;;;;;;;47.13;25.95;;;;;;;4.65;100.00;103004.09;5021719;28;20044;-85
2023/12/18 09:24:34;;;;;;;38.72;25.58;;;;;;;4.71;100.00;103012.91;5017901;28;20452;-84
2023/12/18 09:27:00;;;;;;;37.33;25.77;;;;;;;4.69;100.00;103024.34;5025139;28;20679;-85
2023/12/18 09:29:26;;;;;;;45.47;26.70;;;;;;;4.70;100.00;103008.50;5006752;28;21289;-86
2023/12/18 09:31:51;;;;;;;36.75;24.17;;;;;;;4.69;100.00;103019.94;5020585;28;20031;-84
2023/12/18 09:34:16;;;;;;;42.35;25.67;;;;;;;4.67;100.00;103023.44;5018350;28;20033;-86
2023/12/18 09:36:42;;;;;;;42.42;26.23;;;;;;;4.46;100.00;102996.00;5016912;28;20407;-86
2023/12/18 09:39:07;;;;;;;37.08;24.88;;;;;;;4.66;100.00;103029.59;5017685;28;20028;-84
2023/12/18 09:41:36;;;;;;;34.78;24.20;;;;;;;4.67;100.00;103044.53;5018332;28;20112;-83
2023/12/18 09:44:01;;;;;;;42.53;26.17;;;;;;;4.59;100.00;103028.63;5019140;28;20060;-85
2023/12/18 09:46:27;;;;;;;42.22;26.05;;;;;;;4.65;100.00;103039.25;5025204;28;20042;-82
2023/12/18 09:48:53;;;;;;;39.28;26.63;;;;;;;4.63;100.00;103029.53;5018962;28;20338;-83
2023/12/18 09:51:24;;;;;;;37.95;26.48;;;;;;;4.63;100.00;103032.19;5018220;28;20026;-83
2023/12/18 09:53:51;;;;;;;39.53;26.02;;;;;;;4.59;100.00;103020.72;5017026;28;20034;-84
2023/12/18 09:56:23;;;;;;;43.33;27.00;;;;;;;4.60;100.00;103021.59;5015588;28;20038;-86
2023/12/18 09:58:52;;;;;;;39.80;26.35;;;;;;;4.66;100.00;103027.81;5012788;28;20041;-86
2023/12/18 10:01:18;;;;;;;47.80;28.50;;;;;;;4.69;100.00;103026.97;5019806;28;20046;-86
2023/12/18 10:03:43;;;;;;;42.50;26.13;;;;;;;4.66;100.00;103029.59;5018213;28;20442;-87
2023/12/18 10:06:09;;;;;;;38.42;26.65;;;;;;;4.68;100.00;103026.09;5017140;28;20499;-86
2023/12/18 10:08:35;;;;;;;40.13;25.40;;;;;;;4.65;100.00;103025.19;5015161;28;20038;-86
2023/12/18 10:11:01;;;;;;;39.70;26.02;;;;;;;4.64;100.00;103018.13;5018811;28;20037;-83
2023/12/18 10:13:26;;;;;;;40.40;26.83;;;;;;;4.65;100.00;103026.06;5015213;28;20292;-86
2023/12/18 10:15:55;;;;;;;38.00;25.83;;;;;;;4.64;100.00;103028.66;5015034;28;20250;-84
2023/12/18 10:18:23;;;;;;;43.80;28.02;;;;;;;4.57;100.00;103009.28;5021721;28;20781;-84
2023/12/18 10:20:49;;;;;;;42.53;26.40;;;;;;;4.66;100.00;103021.66;5010788;28;20496;-84
2023/12/18 10:23:16;;;;;;;41.58;27.50;;;;;;;4.56;100.00;102999.63;4995742;28;20032;-86
2023/12/18 10:25:41;;;;;;;42.47;26.08;;;;;;;4.61;100.00;103018.13;5020446;28;20046;-87
2023/12/18 10:28:07;;;;;;;40.25;26.58;;;;;;;4.60;100.00;103021.59;5018060;28;20060;-86
2023/12/18 10:30:34;;;;;;;43.08;27.67;;;;;;;4.59;100.00;103026.00;5019485;28;20065;-87
2023/12/18 10:33:05;;;;;;;41.53;26.73;;;;;;;4.58;100.00;103029.50;5025494;28;20037;-84
2023/12/18 10:35:31;;;;;;;45.22;26.45;;;;;;;4.54;100.00;103019.81;5021595;28;20033;-85
2023/12/18 10:38:00;;;;;;;41.50;26.15;;;;;;;4.54;100.00;103021.56;5006563;28;20018;-85
2023/12/18 10:40:27;;;;;;;37.85;25.92;;;;;;;4.51;100.00;103009.22;5020489;28;20036;-87
2023/12/18 10:43:01;;;;;;;38.33;25.48;;;;;;;4.55;100.00;103015.41;5019919;28;20056;-84
2023/12/18 10:45:27;;;;;;;41.45;26.27;;;;;;;4.52;100.00;102996.94;5006159;28;20507;-84
2023/12/18 10:47:54;;;;;;;37.70;25.95;;;;;;;4.47;100.00;102995.16;5017161;28;20045;-87
2023/12/18 10:50:21;;;;;;;41.35;25.98;;;;;;;4.49;100.00;102993.38;5005540;28;20041;-87
2023/12/18 10:52:47;;;;;;;36.38;25.23;;;;;;;4.48;100.00;102996.91;5023478;28;20039;-86
2023/12/18 10:55:16;;;;;;;39.88;25.80;;;;;;;4.49;100.00;102988.13;5017084;28;20038;-85
2023/12/18 10:57:43;;;;;;;39.15;25.70;;;;;;;4.47;100.00;102968.78;5002751;28;20029;-87
2023/12/18 11:00:10;;;;;;;38.17;25.63;;;;;;;4.50;100.00;102960.88;5005351;28;20478;-85
2023/12/18 11:02:36;;;;;;;34.38;25.25;;;;;;;4.54;100.00;102955.63;5017438;28;20045;-85